createdAt,value
2022-12-24T07:09:28.477Z,1.90
2022-12-24T07:17:25.988Z,2.20
2022-12-24T07:20:00.211Z,2.40
2022-12-24T07:22:33.888Z,2.40
2022-12-24T07:25:09.755Z,2.30
2022-12-24T07:27:44.160Z,2.40
2022-12-24T07:30:19.004Z,2.40
2022-12-24T07:32:53.364Z,2.30
2022-12-24T07:35:27.458Z,2.60
2022-12-24T07:38:02.471Z,3.10
2022-12-24T07:40:38.561Z,2.80
2022-12-24T07:43:12.318Z,3.50
2022-12-24T07:45:46.189Z,3.80
2022-12-24T07:48:20.245Z,3.40
2022-12-24T07:50:55.228Z,3.40
2022-12-24T07:53:31.638Z,4.60
2022-12-24T07:56:12.461Z,4.50
2022-12-24T07:58:47.448Z,4.50
2022-12-24T08:01:22.086Z,4.20
2022-12-24T08:03:56.316Z,5.50
2022-12-24T08:06:30.465Z,4.80
2022-12-24T08:09:04.833Z,4.90
2022-12-24T08:11:38.987Z,4.70
2022-12-24T08:14:13.044Z,4.10
2022-12-24T08:16:47.356Z,4.80
2022-12-24T08:19:21.881Z,4.90
2022-12-24T08:21:56.105Z,4.10
2022-12-24T08:24:30.470Z,4.20
2022-12-24T08:27:04.734Z,4.80
2022-12-24T08:29:39.105Z,3.70
2022-12-24T08:44:15.741Z,5.50
2022-12-24T08:46:59.090Z,3.70
2022-12-24T08:49:33.903Z,4.30
2022-12-24T08:52:08.633Z,4.20
2022-12-24T08:54:43.117Z,3.80
2022-12-24T08:57:17.553Z,4.20
2022-12-24T08:59:51.708Z,4.50
2022-12-24T09:02:26.227Z,4.20
2022-12-24T09:05:00.676Z,4.40
2022-12-24T09:07:34.981Z,4.80
2022-12-24T09:10:11.311Z,4.50
2022-12-24T09:12:45.616Z,4.40
2022-12-24T09:15:20.773Z,4.00
2022-12-24T09:17:55.465Z,4.40
2022-12-24T09:20:29.687Z,4.70
2022-12-24T09:23:03.628Z,4.90
2022-12-24T09:25:42.410Z,4.90
2022-12-24T09:28:16.336Z,4.60
2022-12-24T09:30:58.835Z,5.00
2022-12-24T09:33:35.224Z,4.80
2022-12-24T09:36:11.350Z,4.70
2022-12-24T09:38:45.575Z,5.40
2022-12-24T09:41:42.720Z,5.70
2022-12-24T09:44:40.726Z,6.30
2022-12-24T09:47:31.910Z,4.70
2022-12-24T09:50:25.452Z,4.20
2022-12-24T09:53:04.079Z,5.50
2022-12-24T09:55:44.084Z,5.50
2022-12-24T09:58:38.255Z,4.90
2022-12-24T10:01:17.961Z,5.70
2022-12-24T10:03:52.443Z,4.90
2022-12-24T10:06:35.651Z,5.50
2022-12-24T10:09:23.003Z,6.00
2022-12-24T10:12:08.829Z,4.80
2022-12-24T10:15:04.396Z,4.80
2022-12-24T10:17:55.168Z,4.70
2022-12-24T10:20:45.989Z,4.30
2022-12-24T10:23:28.773Z,4.50
2022-12-24T10:26:16.915Z,3.80
2022-12-24T10:28:56.138Z,3.50
2022-12-24T10:31:36.224Z,4.10
2022-12-24T10:34:21.528Z,4.30
2022-12-24T10:36:56.416Z,4.10
2022-12-24T10:39:31.306Z,3.40
2022-12-24T10:42:08.826Z,3.50
2022-12-24T10:44:43.666Z,3.40
2022-12-24T10:47:21.933Z,3.80
2022-12-24T10:50:06.069Z,3.80
2022-12-24T10:52:44.987Z,3.80
2022-12-24T10:55:28.319Z,4.00
2022-12-24T10:58:14.008Z,2.90
2022-12-24T11:00:55.312Z,2.90
2022-12-24T11:03:35.897Z,4.30
2022-12-24T11:06:21.053Z,3.90
2022-12-24T11:08:54.864Z,3.50
2022-12-24T11:11:35.961Z,3.20
2022-12-24T11:14:19.231Z,2.70
2022-12-24T11:16:57.329Z,2.60
2022-12-24T11:19:40.255Z,2.60
2022-12-24T11:22:25.873Z,2.20
2022-12-24T11:25:07.684Z,1.80
2022-12-24T11:27:51.945Z,2.10
2022-12-24T11:30:34.290Z,2.20
2022-12-24T11:33:27.061Z,2.30
2022-12-24T11:36:08.532Z,2.20
2022-12-24T11:38:43.004Z,2.40
2022-12-24T11:41:17.656Z,2.60
2022-12-24T11:44:03.487Z,2.50
2022-12-24T11:46:52.416Z,2.70
2022-12-24T11:49:33.479Z,2.70
2022-12-24T11:52:25.078Z,2.60
2022-12-24T11:55:22.830Z,2.40
2022-12-24T11:58:03.340Z,2.70
2022-12-24T12:00:37.246Z,2.50
2022-12-24T12:03:28.835Z,3.00
2022-12-24T12:06:08.615Z,3.40
2022-12-24T12:08:44.581Z,3.00
2022-12-24T12:11:19.840Z,3.30
2022-12-24T12:13:54.551Z,4.00
2022-12-24T12:16:55.315Z,4.30
2022-12-24T12:19:32.732Z,4.60
2022-12-24T12:22:17.034Z,3.60
2022-12-24T12:24:57.357Z,3.80
2022-12-24T12:27:37.413Z,3.20
2022-12-24T12:30:21.905Z,3.50
2022-12-24T12:33:05.909Z,3.20
2022-12-24T12:35:43.541Z,3.20
2022-12-24T12:38:24.147Z,3.10
2022-12-24T12:41:34.208Z,3.00
2022-12-24T12:44:47.378Z,3.20
2022-12-24T12:47:53.638Z,3.50
2022-12-24T12:50:36.187Z,3.60
2022-12-24T12:53:33.405Z,3.60
2022-12-24T12:56:19.370Z,4.10
2022-12-24T12:59:00.413Z,3.20
2022-12-24T13:01:46.630Z,3.70
2022-12-24T13:05:19.867Z,3.60
2022-12-24T13:08:23.460Z,3.20
2022-12-24T13:11:22.869Z,3.00
2022-12-24T13:14:42.926Z,3.30
2022-12-24T13:17:50.786Z,2.80
2022-12-24T13:20:30.746Z,2.40
2022-12-24T13:23:16.263Z,2.10
2022-12-24T13:25:53.619Z,2.50
2022-12-24T13:28:47.757Z,2.50
2022-12-24T13:31:33.179Z,2.70
2022-12-24T13:34:37.859Z,2.00
2022-12-24T13:37:33.911Z,2.30
2022-12-24T13:40:24.120Z,2.10
2022-12-24T13:43:12.600Z,1.90
2022-12-24T13:45:56.239Z,2.40
2022-12-24T13:48:37.527Z,3.00
2022-12-24T13:51:28.488Z,2.40
2022-12-24T13:54:04.169Z,2.20
2022-12-24T13:56:41.346Z,2.70
2022-12-24T13:59:38.322Z,2.60
2022-12-24T14:02:24.649Z,2.80
2022-12-24T14:05:04.833Z,2.40
2022-12-24T14:07:46.082Z,2.50
2022-12-24T14:10:30.561Z,3.00
2022-12-24T14:13:09.115Z,2.00
2022-12-24T14:16:09.294Z,2.70
2022-12-24T14:18:47.551Z,2.30
2022-12-24T14:21:28.293Z,1.90
2022-12-24T14:24:08.403Z,2.20
2022-12-24T14:26:53.645Z,2.70
2022-12-24T14:29:33.377Z,2.60
2022-12-24T14:32:18.275Z,2.10
2022-12-24T14:35:15.491Z,2.10
2022-12-24T14:37:58.419Z,2.60
2022-12-24T14:40:36.240Z,2.20
2022-12-24T14:43:23.070Z,1.80
2022-12-24T14:46:07.622Z,2.10
2022-12-24T14:48:51.670Z,2.40
2022-12-24T14:51:38.774Z,2.20
2022-12-24T14:54:39.535Z,1.80
2022-12-24T14:57:28.455Z,2.20
2022-12-24T15:00:19.271Z,2.10
2022-12-24T15:02:55.504Z,2.70
2022-12-24T15:05:32.451Z,1.90
2022-12-24T15:08:16.102Z,1.80
2022-12-24T15:10:59.753Z,2.10
2022-12-24T15:13:39.935Z,2.10
2022-12-24T15:16:20.400Z,2.40
2022-12-24T15:18:58.941Z,2.20
2022-12-24T15:21:41.784Z,2.10
2022-12-24T15:24:33.081Z,2.10
2022-12-24T15:27:18.140Z,2.80
2022-12-24T15:29:55.308Z,2.60
2022-12-24T15:32:29.702Z,2.80
2022-12-24T15:35:03.616Z,2.60
2022-12-24T15:37:42.891Z,2.50
2022-12-24T15:40:28.431Z,2.70
2022-12-24T15:43:02.318Z,2.10
2022-12-24T15:45:45.653Z,2.10
2022-12-24T15:48:27.518Z,1.90
2022-12-24T15:51:04.945Z,2.30
2022-12-24T15:53:45.928Z,2.20
2022-12-24T15:56:36.810Z,2.00
2022-12-24T15:59:37.469Z,2.60
2022-12-24T16:02:45.868Z,2.50
2022-12-24T16:05:41.230Z,3.00
2022-12-24T16:08:32.785Z,2.70
2022-12-24T16:11:20.927Z,2.20
2022-12-24T16:14:08.766Z,2.10
2022-12-24T16:16:48.274Z,1.80
2022-12-24T16:19:26.067Z,2.40
2022-12-24T16:22:23.291Z,2.50
2022-12-24T16:24:57.787Z,3.00
2022-12-24T16:27:32.141Z,2.90
2022-12-24T16:30:07.110Z,2.90
2022-12-24T16:32:43.144Z,3.10
2022-12-24T16:35:28.771Z,2.80
2022-12-24T16:38:02.558Z,2.30
2022-12-24T16:40:36.729Z,2.80
2022-12-24T16:43:29.162Z,2.90
2022-12-24T16:46:08.416Z,3.10
2022-12-24T16:48:44.023Z,3.10
2022-12-24T16:51:18.196Z,2.60
2022-12-24T16:53:52.499Z,3.60
2022-12-24T16:56:26.507Z,3.30
2022-12-24T16:59:01.105Z,3.40
2022-12-24T17:01:34.936Z,3.20
2022-12-24T17:04:09.650Z,4.20
2022-12-24T17:06:43.851Z,3.30
2022-12-24T17:09:17.962Z,3.20
2022-12-24T17:11:52.242Z,2.50
2022-12-24T17:14:26.369Z,3.60
2022-12-24T17:17:00.507Z,2.80
2022-12-24T17:19:35.474Z,3.50
2022-12-24T17:22:09.747Z,2.40
2022-12-24T17:24:44.049Z,3.20
2022-12-24T17:27:18.873Z,3.70
2022-12-24T17:29:53.103Z,2.90
2022-12-24T17:32:28.528Z,3.00
2022-12-24T17:35:03.147Z,2.40
2022-12-24T17:37:37.319Z,2.60
2022-12-24T17:40:14.755Z,2.50
2022-12-24T17:42:49.009Z,3.00
2022-12-24T17:45:23.259Z,5.10
2022-12-24T17:47:57.313Z,5.20
2022-12-24T17:50:31.234Z,3.50
2022-12-24T17:53:05.093Z,4.00
2022-12-24T17:55:43.137Z,4.40
2022-12-24T17:58:17.541Z,4.70
2022-12-24T18:00:53.148Z,3.50
2022-12-24T18:03:27.605Z,3.10
2022-12-24T18:06:08.645Z,2.80
2022-12-24T18:08:46.592Z,2.90
2022-12-24T18:11:25.552Z,2.80
2022-12-24T18:14:01.301Z,3.10
2022-12-24T18:16:37.782Z,2.50
2022-12-24T18:19:14.427Z,3.30
2022-12-24T18:21:48.881Z,2.90
2022-12-24T18:24:23.844Z,3.50
2022-12-24T18:26:57.810Z,2.70
2022-12-24T18:29:32.165Z,2.40
2022-12-24T18:32:07.060Z,2.80
2022-12-24T18:34:41.688Z,2.50
2022-12-24T18:37:15.638Z,2.70
2022-12-24T18:39:51.237Z,3.10
2022-12-24T18:42:26.019Z,2.60
2022-12-24T18:45:00.052Z,2.60
2022-12-24T18:47:33.935Z,3.00
2022-12-24T18:50:10.574Z,3.50
2022-12-24T18:52:45.192Z,2.70
2022-12-24T18:55:19.916Z,2.70
2022-12-24T18:57:54.032Z,2.70
2022-12-24T19:00:28.314Z,2.80
2022-12-24T19:03:02.271Z,2.90
2022-12-24T19:05:37.089Z,2.70
2022-12-24T19:08:37.816Z,2.70
2022-12-24T19:11:05.498Z,2.80
2022-12-24T19:13:39.773Z,2.40
2022-12-24T19:16:14.039Z,3.40
2022-12-24T19:18:48.671Z,10.20
2022-12-24T19:21:23.006Z,19.40
2022-12-24T19:23:57.305Z,11.90
2022-12-24T19:26:31.499Z,8.20
2022-12-24T19:29:05.811Z,5.40
2022-12-24T19:31:39.761Z,5.40
2022-12-24T19:34:13.924Z,5.10
2022-12-24T19:36:48.285Z,5.20
2022-12-24T19:39:25.421Z,7.30
2022-12-24T19:42:04.428Z,7.40
2022-12-24T19:44:38.889Z,8.10
2022-12-24T19:47:12.908Z,6.50
2022-12-24T19:49:46.938Z,5.50
2022-12-24T19:52:21.370Z,6.30
2022-12-24T19:54:55.099Z,7.00
2022-12-24T19:57:29.159Z,7.00
2022-12-24T20:00:02.986Z,7.50
2022-12-24T20:02:46.213Z,8.30
2022-12-24T20:05:20.617Z,7.30
2022-12-24T20:07:54.455Z,8.60
2022-12-24T20:10:28.628Z,7.10
2022-12-24T20:13:06.163Z,6.60
2022-12-24T20:15:45.578Z,6.60
2022-12-24T20:18:19.692Z,6.80
2022-12-24T20:20:53.617Z,6.40
2022-12-24T20:23:27.501Z,6.10
2022-12-24T20:26:07.301Z,6.20
2022-12-24T20:28:42.609Z,7.00
2022-12-24T20:31:19.780Z,7.60
2022-12-24T20:33:54.566Z,9.50
2022-12-24T20:36:31.554Z,10.10
2022-12-24T20:39:07.413Z,8.90
2022-12-24T20:41:41.572Z,9.00
2022-12-24T20:44:16.365Z,7.70
2022-12-24T20:46:50.370Z,7.90
2022-12-24T20:49:24.634Z,8.50
2022-12-24T20:51:59.028Z,8.00
2022-12-24T20:54:33.535Z,7.80
2022-12-24T20:57:07.867Z,7.20
2022-12-24T20:59:42.753Z,7.40
2022-12-24T21:02:18.787Z,6.80
2022-12-24T21:04:56.631Z,6.80
2022-12-24T21:07:35.919Z,7.30
2022-12-24T21:10:12.528Z,7.40
2022-12-24T21:12:50.553Z,7.40
2022-12-24T21:15:29.211Z,7.50
2022-12-24T21:18:10.601Z,7.20
2022-12-24T21:20:45.219Z,7.80
2022-12-24T21:23:18.915Z,7.50
2022-12-24T21:26:02.953Z,7.90
2022-12-24T21:28:37.371Z,9.30
2022-12-24T21:31:15.565Z,8.30
2022-12-24T21:33:49.855Z,10.70
2022-12-24T21:36:23.724Z,12.30
2022-12-24T21:38:57.923Z,10.50
2022-12-24T21:41:31.983Z,10.20
2022-12-24T21:44:06.851Z,9.90
2022-12-24T21:46:40.606Z,9.00
2022-12-24T21:49:33.445Z,8.60
2022-12-24T21:52:08.017Z,7.80
2022-12-24T21:54:43.590Z,8.10
2022-12-24T21:57:35.294Z,7.70
2022-12-24T22:00:26.101Z,7.60
2022-12-24T22:03:01.492Z,7.70
2022-12-24T22:05:37.405Z,8.00
2022-12-24T22:08:44.169Z,7.60
2022-12-24T22:11:32.926Z,7.90
2022-12-24T22:14:07.505Z,8.00
2022-12-24T22:16:42.021Z,9.60
2022-12-24T22:19:16.005Z,8.80
2022-12-24T22:21:50.140Z,7.50
2022-12-24T22:24:25.913Z,8.50
2022-12-24T22:27:00.338Z,8.50
2022-12-24T22:29:34.822Z,8.50
2022-12-24T22:32:09.094Z,7.90
2022-12-24T22:34:43.012Z,9.80
2022-12-24T22:37:17.247Z,9.80
2022-12-24T22:39:51.084Z,10.50
2022-12-24T22:42:25.479Z,7.40
2022-12-24T22:44:59.874Z,7.70
2022-12-24T22:47:34.719Z,8.50
2022-12-24T22:50:11.147Z,7.90
2022-12-24T22:52:45.151Z,7.60
2022-12-24T22:55:19.367Z,7.00
2022-12-24T22:57:53.546Z,7.20
2022-12-24T23:00:44.165Z,7.90
2022-12-24T23:03:18.425Z,7.70
2022-12-24T23:06:00.844Z,6.70
2022-12-24T23:08:36.257Z,6.80
2022-12-24T23:11:13.829Z,7.40
2022-12-24T23:14:06.398Z,5.20
2022-12-24T23:16:42.617Z,5.80
2022-12-24T23:19:16.877Z,6.90
2022-12-24T23:21:50.871Z,6.50
2022-12-24T23:24:25.172Z,6.90
2022-12-24T23:27:01.542Z,7.40
2022-12-24T23:29:36.684Z,12.10
2022-12-24T23:32:11.867Z,12.20
2022-12-24T23:34:46.023Z,9.80
2022-12-24T23:37:20.080Z,8.10
2022-12-24T23:39:54.028Z,7.30
2022-12-24T23:42:28.111Z,7.80
2022-12-24T23:45:03.428Z,8.20
2022-12-24T23:47:37.431Z,7.00
2022-12-24T23:50:13.695Z,7.60
2022-12-24T23:52:47.656Z,7.20
2022-12-24T23:55:22.125Z,6.40
2022-12-24T23:57:56.519Z,6.80
